createdAt,value
2019-02-07T00:00:24.537Z,101033.18
2019-02-07T00:02:52.959Z,101035.68
2019-02-07T00:05:21.320Z,101028.74
2019-02-07T00:07:49.687Z,101016.22
2019-02-07T00:10:21.517Z,101014.97
2019-02-07T00:12:49.927Z,101020.17
2019-02-07T00:15:18.316Z,101008.55
2019-02-07T00:17:46.888Z,101008.92
2019-02-07T00:20:17.145Z,101009.81
2019-02-07T00:22:45.593Z,101016.23
2019-02-07T00:25:14.227Z,101015.51
2019-02-07T00:27:42.783Z,101010.67
2019-02-07T00:30:14.710Z,101000.52
2019-02-07T00:32:43.120Z,100993.55
2019-02-07T00:35:11.805Z,100993.75
2019-02-07T00:37:40.307Z,100990.17
2019-02-07T00:40:17.749Z,100988.55
2019-02-07T00:42:46.510Z,100983.91
2019-02-07T00:45:17.244Z,100969.11
2019-02-07T00:47:45.750Z,100964.81
2019-02-07T00:50:15.503Z,100962.87
2019-02-07T00:52:43.961Z,100968.20
2019-02-07T00:55:16.308Z,100952.52
2019-02-07T00:57:45.027Z,100934.45
2019-02-07T01:00:30.285Z,100933.38
2019-02-07T01:02:58.905Z,100924.13
2019-02-07T01:05:27.690Z,100913.43
2019-02-07T01:07:56.102Z,100921.81
2019-02-07T01:10:28.865Z,100927.17
2019-02-07T01:12:57.311Z,100916.66
2019-02-07T01:15:26.728Z,100920.93
2019-02-07T01:17:55.099Z,100918.45
2019-02-07T01:20:23.520Z,100914.71
2019-02-07T01:22:51.914Z,100916.66
2019-02-07T01:25:24.239Z,100915.96
2019-02-07T01:27:52.625Z,100907.22
2019-02-07T01:30:24.282Z,100902.03
2019-02-07T01:32:52.751Z,100901.16
2019-02-07T01:35:21.179Z,100903.45
2019-02-07T01:37:50.227Z,100912.58
2019-02-07T01:40:19.881Z,100898.67
2019-02-07T01:42:48.324Z,100895.09
2019-02-07T01:45:20.199Z,100892.59
2019-02-07T01:47:49.292Z,100885.98
2019-02-07T01:50:22.915Z,100876.20
2019-02-07T01:52:51.957Z,100877.44
2019-02-07T01:55:20.428Z,100867.97
2019-02-07T01:57:48.793Z,100864.03
2019-02-07T02:00:20.401Z,100860.64
2019-02-07T02:02:48.894Z,100859.21
2019-02-07T02:05:19.517Z,100851.72
2019-02-07T02:07:48.733Z,100843.53
2019-02-07T02:10:22.648Z,100842.81
2019-02-07T02:12:51.595Z,100832.83
2019-02-07T02:15:24.720Z,100829.25
2019-02-07T02:17:51.322Z,100824.97
2019-02-07T02:20:21.636Z,100823.72
2019-02-07T02:22:50.025Z,100813.55
2019-02-07T02:25:18.498Z,100807.66
2019-02-07T02:27:47.041Z,100803.73
2019-02-07T02:30:18.330Z,100798.91
2019-02-07T02:32:46.890Z,100801.97
2019-02-07T02:35:15.472Z,100792.52
2019-02-07T02:37:43.987Z,100798.20
2019-02-07T02:40:13.032Z,100786.81
2019-02-07T02:42:41.412Z,100780.59
2019-02-07T02:45:15.033Z,100770.77
2019-02-07T02:47:43.410Z,100762.95
2019-02-07T02:50:16.600Z,100752.24
2019-02-07T02:52:45.052Z,100760.62
2019-02-07T02:55:15.051Z,100751.88
2019-02-07T02:57:43.450Z,100757.08
2019-02-07T03:00:16.256Z,100750.27
2019-02-07T03:02:58.066Z,100739.93
2019-02-07T03:05:37.459Z,100739.41
2019-02-07T03:08:13.250Z,100728.17
2019-02-07T03:10:52.177Z,100716.56
2019-02-07T03:13:28.341Z,100708.76
2019-02-07T03:16:01.537Z,100700.90
2019-02-07T03:18:31.534Z,100711.45
2019-02-07T03:21:04.296Z,100722.30
2019-02-07T03:23:44.137Z,100711.09
2019-02-07T03:26:23.106Z,100699.84
2019-02-07T03:28:53.173Z,100694.52
2019-02-07T03:31:41.373Z,100688.46
2019-02-07T03:34:17.461Z,100678.66
2019-02-07T03:36:56.738Z,100666.03
2019-02-07T03:39:32.998Z,100658.53
2019-02-07T03:42:03.012Z,100643.97
2019-02-07T03:44:35.557Z,100651.63
2019-02-07T03:47:14.438Z,100651.97
2019-02-07T03:50:00.603Z,100643.59
2019-02-07T03:52:30.761Z,100643.77
2019-02-07T03:55:18.609Z,100637.72
2019-02-07T03:57:57.481Z,100647.17
2019-02-07T04:00:27.574Z,100650.20
2019-02-07T04:03:13.793Z,100645.74
2019-02-07T04:05:43.847Z,100646.82
2019-02-07T04:08:13.927Z,100645.39
2019-02-07T04:10:56.259Z,100652.85
2019-02-07T04:13:26.287Z,100630.77
2019-02-07T04:16:15.782Z,100630.77
2019-02-07T04:18:46.069Z,100636.47
2019-02-07T04:21:24.818Z,100646.44
2019-02-07T04:24:00.673Z,100648.72
2019-02-07T04:26:40.214Z,100630.19
2019-02-07T04:29:26.705Z,100629.66
2019-02-07T04:32:02.409Z,100622.20
2019-02-07T04:34:47.752Z,100622.38
2019-02-07T04:37:23.846Z,100609.74
2019-02-07T04:40:06.146Z,100616.70
2019-02-07T04:42:38.981Z,100617.95
2019-02-07T04:45:09.493Z,100608.88
2019-02-07T04:47:56.051Z,100596.26
2019-02-07T04:50:42.171Z,100581.83
2019-02-07T04:53:21.146Z,100564.72
2019-02-07T04:55:53.913Z,100558.50
2019-02-07T04:58:24.118Z,100559.94
2019-02-07T05:01:03.247Z,100559.94
2019-02-07T05:03:39.025Z,100567.25
2019-02-07T05:06:09.160Z,100571.34
2019-02-07T05:08:45.647Z,100571.34
2019-02-07T05:11:21.797Z,100569.03
2019-02-07T05:14:08.473Z,100568.52
2019-02-07T05:16:47.681Z,100553.34
2019-02-07T05:19:34.204Z,100556.39
2019-02-07T05:22:13.306Z,100537.33
2019-02-07T05:24:59.542Z,100524.70
2019-02-07T05:27:45.774Z,100513.48
2019-02-07T05:30:32.165Z,100507.59
2019-02-07T05:33:18.844Z,100500.83
2019-02-07T05:35:48.945Z,100513.45
2019-02-07T05:38:31.053Z,100491.94
2019-02-07T05:41:01.181Z,100478.75
2019-02-07T05:43:36.954Z,100475.91
2019-02-07T05:46:07.073Z,100475.91
2019-02-07T05:48:53.666Z,100471.45
2019-02-07T05:51:23.774Z,100465.22
2019-02-07T05:53:57.582Z,100453.67
2019-02-07T05:56:34.574Z,100442.80
2019-02-07T05:59:04.774Z,100428.21
2019-02-07T06:01:37.719Z,100421.80
2019-02-07T06:04:10.820Z,100429.97
2019-02-07T06:06:43.822Z,100432.63
2019-02-07T06:09:31.995Z,100424.44
2019-02-07T06:12:18.220Z,100430.11
2019-02-07T06:14:48.339Z,100431.52
2019-02-07T06:17:24.587Z,100428.13
2019-02-07T06:19:54.543Z,100430.11
2019-02-07T06:22:27.560Z,100428.30
2019-02-07T06:25:03.072Z,100405.34
2019-02-07T06:27:51.549Z,100405.34
2019-02-07T06:30:27.268Z,100410.83
2019-02-07T06:33:13.488Z,100401.55
2019-02-07T06:35:49.505Z,100400.83
2019-02-07T06:38:31.835Z,100390.99
2019-02-07T06:41:16.955Z,100392.92
2019-02-07T06:43:46.351Z,100389.73
2019-02-07T06:46:25.382Z,100389.56
2019-02-07T06:49:11.374Z,100383.52
2019-02-07T06:51:47.526Z,100383.52
2019-02-07T06:54:23.122Z,100381.32
2019-02-07T06:56:53.130Z,100381.32
2019-02-07T06:59:23.261Z,100382.92
2019-02-07T07:01:56.192Z,100377.73
2019-02-07T07:04:42.847Z,100374.52
2019-02-07T07:07:29.350Z,100369.55
2019-02-07T07:09:59.408Z,100363.99
2019-02-07T07:12:35.806Z,100357.92
2019-02-07T07:15:07.734Z,100357.92
2019-02-07T07:17:40.397Z,100356.30
2019-02-07T07:20:29.846Z,100349.86
2019-02-07T07:22:59.851Z,100338.09
2019-02-07T07:25:30.028Z,100338.57
2019-02-07T07:28:03.659Z,100327.88
2019-02-07T07:30:36.461Z,100326.95
2019-02-07T07:33:06.596Z,100328.72
2019-02-07T07:35:36.989Z,100327.81
2019-02-07T07:38:12.617Z,100327.81
2019-02-07T07:40:54.865Z,100334.41
2019-02-07T07:43:30.407Z,100334.41
2019-02-07T07:46:12.047Z,100326.38
2019-02-07T07:48:52.917Z,100323.45
2019-02-07T07:51:39.491Z,100323.27
2019-02-07T07:54:26.348Z,100322.95
2019-02-07T07:56:56.502Z,100319.20
2019-02-07T07:59:35.334Z,100317.80
2019-02-07T08:02:20.481Z,100302.24
2019-02-07T08:04:56.793Z,100310.04
2019-02-07T08:07:26.777Z,100313.67
2019-02-07T08:10:14.971Z,100314.72
2019-02-07T08:12:48.426Z,100315.81
2019-02-07T08:15:30.941Z,100319.36
2019-02-07T08:18:16.914Z,100305.97
2019-02-07T08:21:03.186Z,100293.89
2019-02-07T08:23:49.450Z,100299.94
2019-02-07T08:26:20.247Z,100304.53
2019-02-07T08:28:51.255Z,100301.64
2019-02-07T08:31:21.306Z,100298.79
2019-02-07T08:33:51.323Z,100299.10
2019-02-07T08:36:21.443Z,100287.52
2019-02-07T08:38:51.550Z,100284.35
2019-02-07T08:41:38.003Z,100277.48
2019-02-07T08:44:14.556Z,100271.03
2019-02-07T08:46:44.609Z,100287.86
2019-02-07T08:49:20.149Z,100272.33
2019-02-07T08:51:57.065Z,100268.73
2019-02-07T08:54:43.471Z,100268.38
2019-02-07T08:57:22.305Z,100263.73
2019-02-07T08:59:55.592Z,100264.75
2019-02-07T09:02:37.380Z,100268.54
2019-02-07T09:05:23.547Z,100263.55
2019-02-07T09:08:10.562Z,100262.09
2019-02-07T09:10:56.723Z,100265.45
2019-02-07T09:13:35.575Z,100270.59
2019-02-07T09:16:05.989Z,100258.10
2019-02-07T09:18:41.923Z,100261.25
2019-02-07T09:21:27.355Z,100262.38
2019-02-07T09:24:09.506Z,100256.84
2019-02-07T09:26:39.526Z,100252.70
2019-02-07T09:29:27.599Z,100251.20
2019-02-07T09:32:10.403Z,100252.06
2019-02-07T09:34:40.425Z,100261.05
2019-02-07T09:37:27.362Z,100253.59
2019-02-07T09:39:57.839Z,100256.66
2019-02-07T09:42:42.936Z,100261.34
2019-02-07T09:45:16.246Z,100256.54
2019-02-07T09:47:49.020Z,100259.94
2019-02-07T09:50:23.881Z,100243.91
2019-02-07T09:52:54.337Z,100255.45
2019-02-07T09:55:30.337Z,100256.03
2019-02-07T09:58:09.269Z,100259.04
2019-02-07T10:00:39.584Z,100252.24
2019-02-07T10:03:15.672Z,100233.98
2019-02-07T10:05:51.710Z,100256.50
2019-02-07T10:08:21.892Z,100256.80
2019-02-07T10:10:51.872Z,100250.00
2019-02-07T10:13:33.744Z,100250.45
2019-02-07T10:16:06.692Z,100244.00
2019-02-07T10:18:48.788Z,100237.94
2019-02-07T10:21:35.598Z,100229.84
2019-02-07T10:24:05.770Z,100236.04
2019-02-07T10:26:41.627Z,100229.12
2019-02-07T10:29:11.850Z,100215.09
2019-02-07T10:31:58.527Z,100218.08
2019-02-07T10:34:37.619Z,100219.34
2019-02-07T10:37:23.994Z,100209.97
2019-02-07T10:40:00.336Z,100208.08
2019-02-07T10:42:32.948Z,100211.91
2019-02-07T10:45:03.027Z,100207.93
2019-02-07T10:47:48.393Z,100204.32
2019-02-07T10:50:30.506Z,100209.40
2019-02-07T10:53:17.239Z,100209.33
2019-02-07T10:56:02.843Z,100206.14
2019-02-07T10:58:36.152Z,100197.89
2019-02-07T11:01:12.368Z,100202.89
2019-02-07T11:03:42.401Z,100203.11
2019-02-07T11:06:27.828Z,100197.27
2019-02-07T11:09:03.662Z,100190.27
2019-02-07T11:11:33.700Z,100192.41
2019-02-07T11:14:20.028Z,100187.69
2019-02-07T11:16:58.910Z,100192.34
2019-02-07T11:19:31.468Z,100201.39
2019-02-07T11:22:04.149Z,100195.88
2019-02-07T11:24:46.250Z,100194.52
2019-02-07T11:27:32.606Z,100199.03
2019-02-07T11:30:02.644Z,100191.30
2019-02-07T11:32:50.686Z,100195.09
2019-02-07T11:35:39.032Z,100189.30
2019-02-07T11:38:09.228Z,100181.86
2019-02-07T11:40:42.066Z,100183.39
2019-02-07T11:43:12.048Z,100187.75
2019-02-07T11:45:44.152Z,100185.41
2019-02-07T11:48:30.724Z,100187.77
2019-02-07T11:51:10.062Z,100179.44
2019-02-07T11:53:46.180Z,100181.08
2019-02-07T11:56:16.355Z,100181.30
2019-02-07T11:58:49.726Z,100182.77
2019-02-07T12:01:19.792Z,100186.31
2019-02-07T12:03:49.823Z,100180.76
2019-02-07T12:06:19.901Z,100174.72
2019-02-07T12:08:49.972Z,100176.70
2019-02-07T12:11:35.059Z,100168.08
2019-02-07T12:14:11.130Z,100165.08
2019-02-07T12:16:47.173Z,100151.95
2019-02-07T12:19:27.005Z,100149.25
2019-02-07T12:22:13.242Z,100151.00
2019-02-07T12:24:46.358Z,100150.11
2019-02-07T12:27:16.463Z,100141.36
2019-02-07T12:29:46.753Z,100137.97
2019-02-07T12:32:16.914Z,100143.98
2019-02-07T12:34:59.008Z,100142.27
2019-02-07T12:37:38.085Z,100154.89
2019-02-07T12:40:11.697Z,100158.95
2019-02-07T12:42:51.098Z,100154.91
2019-02-07T12:45:23.921Z,100154.62
2019-02-07T12:48:12.295Z,100146.52
2019-02-07T12:50:51.269Z,100144.23
2019-02-07T12:53:21.478Z,100140.24
2019-02-07T12:56:07.374Z,100141.58
2019-02-07T12:58:40.374Z,100154.81
2019-02-07T13:01:25.699Z,100155.41
2019-02-07T13:04:11.832Z,100149.03
2019-02-07T13:06:58.323Z,100153.82
2019-02-07T13:09:44.541Z,100146.45
2019-02-07T13:12:23.853Z,100150.34
2019-02-07T13:14:56.582Z,100159.17
2019-02-07T13:17:35.950Z,100161.99
2019-02-07T13:20:23.600Z,100161.38
2019-02-07T13:23:12.053Z,100159.33
2019-02-07T13:25:42.210Z,100161.03
2019-02-07T13:28:24.609Z,100161.98
2019-02-07T13:31:13.097Z,100149.23
2019-02-07T13:33:43.176Z,100156.75
2019-02-07T13:36:13.838Z,100151.80
2019-02-07T13:38:43.896Z,100151.58
2019-02-07T13:41:32.448Z,100138.38
2019-02-07T13:44:08.579Z,100136.41
2019-02-07T13:46:38.624Z,100145.09
2019-02-07T13:49:24.948Z,100125.70
2019-02-07T13:52:01.008Z,100144.23
2019-02-07T13:54:34.099Z,100147.23
2019-02-07T13:57:19.555Z,100143.89
2019-02-07T13:59:50.159Z,100150.06
2019-02-07T14:02:23.213Z,100147.42
2019-02-07T14:04:59.683Z,100145.00
2019-02-07T14:07:45.837Z,100155.13
2019-02-07T14:10:16.426Z,100154.45
2019-02-07T14:12:58.403Z,100160.13
2019-02-07T14:15:31.302Z,100162.06
2019-02-07T14:18:17.985Z,100161.58
2019-02-07T14:20:53.702Z,100142.59
2019-02-07T14:23:35.713Z,100154.14
2019-02-07T14:26:11.476Z,100158.80
2019-02-07T14:28:57.803Z,100173.30
2019-02-07T14:31:42.700Z,100166.54
2019-02-07T14:34:12.727Z,100168.38
2019-02-07T14:36:45.508Z,100176.20
2019-02-07T14:39:17.242Z,100173.12
2019-02-07T14:42:05.364Z,100173.34
2019-02-07T14:44:35.524Z,100184.84
2019-02-07T14:47:03.924Z,100184.03
2019-02-07T14:49:32.421Z,100186.58
2019-02-07T14:52:01.212Z,100191.81
2019-02-07T14:54:29.588Z,100195.66
2019-02-07T14:56:58.406Z,100193.95
2019-02-07T14:59:26.882Z,100185.12
2019-02-07T15:01:55.267Z,100188.20
2019-02-07T15:04:23.904Z,100201.17
2019-02-07T15:06:52.926Z,100194.70
2019-02-07T15:09:21.307Z,100195.21
2019-02-07T15:11:49.672Z,100195.65
2019-02-07T15:14:18.145Z,100194.61
2019-02-07T15:16:46.587Z,100206.34
2019-02-07T15:19:14.990Z,100209.13
2019-02-07T15:21:43.370Z,100203.33
2019-02-07T15:24:11.802Z,100207.09
2019-02-07T15:26:40.232Z,100215.92
2019-02-07T15:29:08.700Z,100210.34
2019-02-07T15:31:37.111Z,100213.70
2019-02-07T15:34:05.521Z,100213.70
2019-02-07T15:36:33.932Z,100213.41
2019-02-07T15:39:03.055Z,100212.91
2019-02-07T15:41:31.458Z,100217.53
2019-02-07T15:43:59.831Z,100220.94
2019-02-07T15:46:28.190Z,100223.22
2019-02-07T15:48:56.557Z,100219.32
2019-02-07T15:51:25.028Z,100218.78
2019-02-07T15:53:53.420Z,100221.58
2019-02-07T15:56:22.388Z,100221.45
2019-02-07T15:59:08.438Z,100226.28
2019-02-07T16:01:38.471Z,100237.13
2019-02-07T16:04:08.506Z,100230.76
2019-02-07T16:06:37.241Z,100237.02
2019-02-07T16:09:07.991Z,100234.44
2019-02-07T16:11:36.377Z,100231.72
2019-02-07T16:14:04.970Z,100238.88
2019-02-07T16:16:33.376Z,100239.91
2019-02-07T16:19:01.918Z,100242.77
2019-02-07T16:21:30.585Z,100239.31
2019-02-07T16:24:00.612Z,100237.30
2019-02-07T16:26:29.258Z,100226.86
2019-02-07T16:28:57.648Z,100235.08
2019-02-07T16:31:26.024Z,100236.19
2019-02-07T16:33:54.503Z,100237.30
2019-02-07T16:36:23.074Z,100237.09
2019-02-07T16:38:51.927Z,100231.19
2019-02-07T16:41:20.350Z,100226.75
2019-02-07T16:43:49.030Z,100239.34
2019-02-07T16:46:17.443Z,100232.24
2019-02-07T16:48:45.802Z,100237.20
2019-02-07T16:51:14.223Z,100240.52
2019-02-07T16:53:43.046Z,100241.02
2019-02-07T16:56:11.643Z,100240.25
2019-02-07T16:58:40.071Z,100240.66
2019-02-07T17:01:09.265Z,100244.55
2019-02-07T17:03:37.621Z,100239.73
2019-02-07T17:06:06.083Z,100240.35
2019-02-07T17:08:34.526Z,100245.27
2019-02-07T17:11:03.383Z,100241.92
2019-02-07T17:13:31.816Z,100223.48
2019-02-07T17:16:00.198Z,100255.25
2019-02-07T17:18:28.591Z,100251.70
2019-02-07T17:20:57.056Z,100256.70
2019-02-07T17:23:25.465Z,100255.16
2019-02-07T17:25:54.335Z,100259.81
2019-02-07T17:28:22.695Z,100262.02
2019-02-07T17:30:51.079Z,100263.11
2019-02-07T17:33:19.589Z,100266.67
2019-02-07T17:35:50.032Z,100272.27
2019-02-07T17:38:18.207Z,100276.06
2019-02-07T17:40:46.546Z,100276.06
2019-02-07T17:43:15.036Z,100279.97
2019-02-07T17:45:43.641Z,100274.08
2019-02-07T17:48:12.227Z,100282.52
2019-02-07T17:50:41.101Z,100285.45
2019-02-07T17:53:12.039Z,100288.80
2019-02-07T17:55:42.267Z,100287.20
2019-02-07T17:58:11.640Z,100288.64
2019-02-07T18:00:50.414Z,100282.48
2019-02-07T18:03:19.181Z,100292.64
2019-02-07T18:05:48.111Z,100284.58
2019-02-07T18:08:16.542Z,100283.12
2019-02-07T18:10:45.124Z,100279.43
2019-02-07T18:13:13.705Z,100284.00
2019-02-07T18:15:42.116Z,100281.81
2019-02-07T18:18:10.894Z,100285.42
2019-02-07T18:20:40.975Z,100283.77
2019-02-07T18:23:09.646Z,100284.58
2019-02-07T18:25:39.865Z,100295.63
2019-02-07T18:28:08.516Z,100291.63
2019-02-07T18:30:37.015Z,100303.12
2019-02-07T18:33:05.578Z,100298.81
2019-02-07T18:35:34.022Z,100302.61
2019-02-07T18:38:02.433Z,100308.42
2019-02-07T18:40:32.009Z,100310.86
2019-02-07T18:43:00.722Z,100305.22
2019-02-07T18:45:29.458Z,100297.38
2019-02-07T18:47:57.850Z,100312.21
2019-02-07T18:50:29.216Z,100299.88
2019-02-07T18:52:57.638Z,100306.31
2019-02-07T18:55:26.067Z,100293.43
2019-02-07T18:57:54.527Z,100296.42
2019-02-07T19:00:37.702Z,100300.17
2019-02-07T19:03:07.576Z,100290.22
2019-02-07T19:05:36.216Z,100295.06
2019-02-07T19:08:04.931Z,100293.62
2019-02-07T19:10:35.045Z,100304.66
2019-02-07T19:13:03.437Z,100304.81
2019-02-07T19:15:40.873Z,100306.02
2019-02-07T19:18:09.494Z,100296.73
2019-02-07T19:20:37.898Z,100302.27
2019-02-07T19:23:06.909Z,100310.12
2019-02-07T19:25:39.254Z,100312.27
2019-02-07T19:28:08.064Z,100310.66
2019-02-07T19:30:36.652Z,100318.46
2019-02-07T19:33:05.064Z,100314.01
2019-02-07T19:35:33.564Z,100318.77
2019-02-07T19:38:02.338Z,100324.51
2019-02-07T19:40:33.127Z,100320.45
2019-02-07T19:43:01.670Z,100336.51
2019-02-07T19:45:30.158Z,100342.13
2019-02-07T19:48:04.310Z,100342.53
2019-02-07T19:50:33.099Z,100351.67
2019-02-07T19:53:01.471Z,100351.88
2019-02-07T19:55:31.799Z,100345.13
2019-02-07T19:58:02.486Z,100352.46
2019-02-07T20:00:32.491Z,100350.16
2019-02-07T20:03:07.755Z,100353.20
2019-02-07T20:05:36.148Z,100353.91
2019-02-07T20:08:05.305Z,100362.34
2019-02-07T20:10:34.392Z,100363.59
2019-02-07T20:13:02.808Z,100362.54
2019-02-07T20:15:33.150Z,100371.28
2019-02-07T20:18:01.629Z,100359.19
2019-02-07T20:20:30.355Z,100364.53
2019-02-07T20:23:06.942Z,100364.57
2019-02-07T20:25:40.065Z,100357.78
2019-02-07T20:28:08.551Z,100357.59
2019-02-07T20:30:42.630Z,100365.66
2019-02-07T20:33:11.309Z,100373.00
2019-02-07T20:35:39.725Z,100372.45
2019-02-07T20:38:10.525Z,100370.30
2019-02-07T20:40:39.320Z,100372.30
2019-02-07T20:43:09.559Z,100373.89
2019-02-07T20:45:38.373Z,100372.14
2019-02-07T20:48:07.632Z,100382.67
2019-02-07T20:50:36.034Z,100382.48
2019-02-07T20:53:04.724Z,100353.56
2019-02-07T20:55:33.366Z,100380.17
2019-02-07T20:58:02.030Z,100382.48
2019-02-07T21:00:35.303Z,100386.06
2019-02-07T21:03:04.341Z,100394.06
2019-02-07T21:05:33.173Z,100387.66
2019-02-07T21:08:01.608Z,100384.66
2019-02-07T21:10:32.009Z,100382.32
2019-02-07T21:13:00.536Z,100392.78
2019-02-07T21:15:29.325Z,100394.92
2019-02-07T21:17:57.827Z,100405.03
2019-02-07T21:20:28.214Z,100400.94
2019-02-07T21:22:57.456Z,100412.33
2019-02-07T21:25:34.954Z,100412.48
2019-02-07T21:28:03.353Z,100422.09
2019-02-07T21:30:32.507Z,100419.05
2019-02-07T21:33:00.950Z,100418.16
2019-02-07T21:35:29.770Z,100426.73
2019-02-07T21:37:58.194Z,100427.09
2019-02-07T21:40:31.427Z,100437.08
2019-02-07T21:43:00.310Z,100440.63
2019-02-07T21:45:29.108Z,100437.23
2019-02-07T21:48:00.653Z,100443.98
2019-02-07T21:50:32.792Z,100447.23
2019-02-07T21:53:01.293Z,100450.42
2019-02-07T21:55:31.666Z,100455.58
2019-02-07T21:58:00.136Z,100451.21
2019-02-07T22:00:34.079Z,100465.00
2019-02-07T22:03:02.759Z,100467.96
2019-02-07T22:05:31.583Z,100478.19
2019-02-07T22:08:00.002Z,100481.66
2019-02-07T22:10:28.572Z,100483.20
2019-02-07T22:12:57.114Z,100493.52
2019-02-07T22:15:29.881Z,100497.97
2019-02-07T22:17:58.334Z,100492.92
2019-02-07T22:20:30.965Z,100498.78
2019-02-07T22:22:59.583Z,100497.13
2019-02-07T22:25:28.043Z,100507.25
2019-02-07T22:27:56.480Z,100499.89
2019-02-07T22:30:30.547Z,100501.30
2019-02-07T22:32:59.483Z,100506.25
2019-02-07T22:35:29.637Z,100515.31
2019-02-07T22:37:58.286Z,100517.11
2019-02-07T22:40:26.687Z,100527.06
2019-02-07T22:42:55.184Z,100521.71
2019-02-07T22:45:26.430Z,100522.96
2019-02-07T22:47:54.816Z,100526.82
2019-02-07T22:50:26.629Z,100527.88
2019-02-07T22:52:57.414Z,100556.25
2019-02-07T22:55:26.160Z,100566.72
2019-02-07T22:57:54.743Z,100558.16
2019-02-07T23:00:34.511Z,100553.36
2019-02-07T23:03:05.203Z,100552.50
2019-02-07T23:05:33.637Z,100544.59
2019-02-07T23:08:02.134Z,100546.03
2019-02-07T23:10:30.580Z,100547.95
2019-02-07T23:13:00.290Z,100552.76
2019-02-07T23:15:28.812Z,100543.59
2019-02-07T23:17:57.203Z,100539.23
2019-02-07T23:20:25.626Z,100550.45
2019-02-07T23:22:53.964Z,100554.36
2019-02-07T23:25:22.381Z,100556.31
2019-02-07T23:27:50.769Z,100581.67
2019-02-07T23:30:20.062Z,100583.77
2019-02-07T23:32:48.593Z,100566.73
2019-02-07T23:35:16.994Z,100557.12
2019-02-07T23:37:45.350Z,100556.56
2019-02-07T23:40:16.340Z,100563.05
2019-02-07T23:42:44.826Z,100557.45
2019-02-07T23:45:17.095Z,100555.05
2019-02-07T23:47:45.855Z,100556.84
2019-02-07T23:50:14.233Z,100565.20
2019-02-07T23:52:42.645Z,100566.46
2019-02-07T23:55:14.913Z,100568.22
2019-02-07T23:57:43.223Z,100566.97
